FFD weather

RAF Fairford
Fairford, England, United Kingdom

Public forecast

Using degrees Celsius for public forecast. Weather courtesy of forecast.io.

METAR (pilot weather report)

Retrieved 2019/04/25 13:40 UTC (20 minutes ago):

EGVA 251340Z AUTO M M M FEW034 BKN055 12/08 A2946 RMK AO2 RAB27E38DZB38E40 SLP980 RVRNO $

TAF (pilot weather forecast)

Closest forecast is RAF Brize Norton, 8.7 nm (16.1 km) ENE. Retrieved 2019/04/25 15:00 UTC (0 seconds ago):

TAF EGVN 251341Z 2515/2615 20012KT 9999 SCT030 TEMPO 2515/2522 6000 SHRA PROB30 TEMPO 2515/2519 21015G25KT 4000 +SHRA SCT020CB TEMPO 2603/2609 SCT007 PROB40 TEMPO 2609/2615 4000 SHRA SCT022